Airfield :
LOGIN :

Register | Disclaimer

   EN    FR    IT 

 










Legend :    VFR   Marginal VFR   IFR   Intensive IFR   Very Intensive IFR
Visi :
Ceiling :
>= 8 km
>= 3000ft
5 to 8 km
1000 to 3000 ft
1500m to 5 km
500 to 1000 ft
800 to 1500m
200 to 500 ft
< 800m
< 200 ft
Symbols :   Thunderstorms  Fog  Heavy snow  Heavy precipitations  Wind > 20 kt
SIGMETs :     Misc.  Thunderstorms  Icing  Turbulence  Mountain Waves  Volcanic Ashes







- Airport Elevation : 20 ft


EBFN - Koksijde

CURRENT METAR :
  • 200725Z 19009KT 9999 -DZRA FEW012 BKN022 BKN035 05/04 Q1018 WHT WHT TEMPO GRN

EXPIRED METARs :
  • 200655Z 19007KT 9999 BKN022 BKN040 05/04 Q1019 WHT WHT TEMPO GRN
  • 200625Z 20008KT 9999 BKN022 BKN033 05/03 Q1019 WHT WHT TEMPO GRN
  • 200555Z 19004KT 9999 -DZRA BKN022 BKN026 04/03 Q1020 WHT WHT TEMPO GRN
  • 200525Z 20005KT 9999 SCT024 BKN030 04/03 Q1020 WHT WHT TEMPO GRN
  • 200510Z 20005KT 9999 SCT024 BKN030 04/03 Q1020 WHT WHT TEMPO GRN
  • 200455Z 21005KT 9999 SCT025 BKN033 04/03 Q1020 BLU BLU BECMG WHT
  • 200436Z 21006KT 9999 BKN038 BKN060 04/03 Q1020 BLU BLU BECMG WHT

TAF TAF EBFN
Valid from the 20 at 07:00 until the 20 at 16:00 UTC


200541Z 2007/2016 20008KT 9999 BKN022 BKN040
TEMPO 2007/2011 7000 -RADZ BKN007 BKN040
BECMG 2008/2010 22014KT
TEMPO 2011/2014 FEW015 BKN035
BECMG 2014/2016 25018KT
No reported NOTAMs for that airfield.



MET'MAP, your aeronautical weather chart ! - Copyright ORBIFLY December 2007 - Disclaimer

ORBIFLY MET'MAP TEAM :

Programming & Development : Alexandra Zaïnal
Concept & Development : Baudouin d'Aumeries
Co-Development & Prog : Marc-Olivier Méhu
Technical & hardware support : Manuel Goepfert

Contact : metmap@orbifly.com




SOURCES & CREDITS :

   NOAA